sensor_id;sensor_type;location;lat;lon;timestamp;P1;durP1;ratioP1;P2;durP2;ratioP2
65461;SDS011;53236;43.666;18.444;2024-03-23T00:53:49;38.40;;;27.83;;
65461;SDS011;53236;43.666;18.444;2024-03-23T00:56:15;42.30;;;28.27;;
65461;SDS011;53236;43.666;18.444;2024-03-23T00:58:41;41.57;;;30.00;;
65461;SDS011;53236;43.666;18.444;2024-03-23T01:01:07;41.20;;;29.40;;
65461;SDS011;53236;43.666;18.444;2024-03-23T01:03:32;36.07;;;27.13;;
65461;SDS011;53236;43.666;18.444;2024-03-23T01:05:59;37.60;;;26.77;;
65461;SDS011;53236;43.666;18.444;2024-03-23T01:08:25;37.63;;;26.73;;
65461;SDS011;53236;43.666;18.444;2024-03-23T01:10:58;37.93;;;27.53;;
65461;SDS011;53236;43.666;18.444;2024-03-23T01:13:27;37.20;;;26.23;;
65461;SDS011;53236;43.666;18.444;2024-03-23T01:15:54;35.50;;;24.73;;
65461;SDS011;53236;43.666;18.444;2024-03-23T01:18:21;34.13;;;25.90;;
65461;SDS011;53236;43.666;18.444;2024-03-23T01:20:47;35.17;;;25.70;;
65461;SDS011;53236;43.666;18.444;2024-03-23T01:23:13;30.97;;;23.97;;
65461;SDS011;53236;43.666;18.444;2024-03-23T01:25:39;30.63;;;23.03;;
65461;SDS011;53236;43.666;18.444;2024-03-23T01:28:05;30.53;;;22.07;;
65461;SDS011;53236;43.666;18.444;2024-03-23T01:30:32;29.77;;;21.90;;
65461;SDS011;53236;43.666;18.444;2024-03-23T01:32:58;33.17;;;22.40;;
65461;SDS011;53236;43.666;18.444;2024-03-23T01:35:24;28.23;;;21.77;;
65461;SDS011;53236;43.666;18.444;2024-03-23T01:37:50;31.43;;;23.13;;
65461;SDS011;53236;43.666;18.444;2024-03-23T01:40:16;27.30;;;21.77;;
65461;SDS011;53236;43.666;18.444;2024-03-23T01:42:42;30.33;;;22.50;;
65461;SDS011;53236;43.666;18.444;2024-03-23T01:45:08;32.17;;;23.83;;
65461;SDS011;53236;43.666;18.444;2024-03-23T01:47:37;30.20;;;22.57;;
65461;SDS011;53236;43.666;18.444;2024-03-23T01:50:03;35.93;;;24.13;;
65461;SDS011;53236;43.666;18.444;2024-03-23T01:52:29;34.27;;;23.93;;
65461;SDS011;53236;43.666;18.444;2024-03-23T01:54:55;35.03;;;25.10;;
65461;SDS011;53236;43.666;18.444;2024-03-23T01:57:21;38.73;;;26.70;;
65461;SDS011;53236;43.666;18.444;2024-03-23T01:59:47;36.87;;;27.27;;
65461;SDS011;53236;43.666;18.444;2024-03-23T02:02:14;35.83;;;25.67;;
65461;SDS011;53236;43.666;18.444;2024-03-23T02:04:39;36.60;;;26.33;;
65461;SDS011;53236;43.666;18.444;2024-03-23T02:07:08;34.00;;;25.13;;
65461;SDS011;53236;43.666;18.444;2024-03-23T02:09:33;32.87;;;23.17;;
65461;SDS011;53236;43.666;18.444;2024-03-23T02:12:01;31.73;;;23.67;;
65461;SDS011;53236;43.666;18.444;2024-03-23T02:14:27;31.23;;;23.27;;
65461;SDS011;53236;43.666;18.444;2024-03-23T02:16:53;30.17;;;20.80;;
65461;SDS011;53236;43.666;18.444;2024-03-23T02:19:19;29.23;;;20.27;;
65461;SDS011;53236;43.666;18.444;2024-03-23T02:21:44;29.67;;;21.53;;
65461;SDS011;53236;43.666;18.444;2024-03-23T02:24:12;24.17;;;19.57;;
65461;SDS011;53236;43.666;18.444;2024-03-23T02:26:37;28.17;;;22.17;;
65461;SDS011;53236;43.666;18.444;2024-03-23T02:29:03;33.13;;;24.10;;
65461;SDS011;53236;43.666;18.444;2024-03-23T02:31:29;36.93;;;25.40;;
65461;SDS011;53236;43.666;18.444;2024-03-23T02:33:55;38.03;;;25.83;;
65461;SDS011;53236;43.666;18.444;2024-03-23T02:36:20;36.77;;;25.93;;
65461;SDS011;53236;43.666;18.444;2024-03-23T02:38:46;36.23;;;26.53;;
65461;SDS011;53236;43.666;18.444;2024-03-23T02:41:12;38.43;;;26.87;;
65461;SDS011;53236;43.666;18.444;2024-03-23T02:43:38;35.30;;;25.03;;
65461;SDS011;53236;43.666;18.444;2024-03-23T02:46:04;32.40;;;23.97;;
65461;SDS011;53236;43.666;18.444;2024-03-23T02:48:30;32.77;;;23.40;;
65461;SDS011;53236;43.666;18.444;2024-03-23T02:50:56;34.33;;;23.20;;
65461;SDS011;53236;43.666;18.444;2024-03-23T02:53:21;31.00;;;22.43;;
65461;SDS011;53236;43.666;18.444;2024-03-23T02:55:47;31.47;;;23.23;;
65461;SDS011;53236;43.666;18.444;2024-03-23T02:58:13;41.80;;;25.97;;
65461;SDS011;53236;43.666;18.444;2024-03-23T03:00:39;58.43;;;33.10;;
65461;SDS011;53236;43.666;18.444;2024-03-23T03:03:05;65.73;;;37.33;;
65461;SDS011;53236;43.666;18.444;2024-03-23T03:05:32;64.77;;;37.30;;
65461;SDS011;53236;43.666;18.444;2024-03-23T03:07:58;54.57;;;33.07;;
65461;SDS011;53236;43.666;18.444;2024-03-23T03:10:23;45.83;;;28.77;;
65461;SDS011;53236;43.666;18.444;2024-03-23T03:12:49;43.63;;;27.40;;
65461;SDS011;53236;43.666;18.444;2024-03-23T03:15:15;39.67;;;25.47;;
65461;SDS011;53236;43.666;18.444;2024-03-23T03:17:40;47.07;;;29.27;;
65461;SDS011;53236;43.666;18.444;2024-03-23T03:20:06;35.60;;;24.43;;
65461;SDS011;53236;43.666;18.444;2024-03-23T03:22:33;33.83;;;22.97;;
65461;SDS011;53236;43.666;18.444;2024-03-23T03:24:58;30.70;;;22.13;;
65461;SDS011;53236;43.666;18.444;2024-03-23T03:27:25;31.20;;;22.50;;
65461;SDS011;53236;43.666;18.444;2024-03-23T03:29:51;31.80;;;21.67;;
65461;SDS011;53236;43.666;18.444;2024-03-23T03:32:16;34.40;;;23.47;;
65461;SDS011;53236;43.666;18.444;2024-03-23T03:34:42;34.37;;;24.10;;
65461;SDS011;53236;43.666;18.444;2024-03-23T03:37:08;40.40;;;25.83;;
65461;SDS011;53236;43.666;18.444;2024-03-23T03:39:34;35.57;;;25.33;;
65461;SDS011;53236;43.666;18.444;2024-03-23T03:41:59;34.23;;;23.87;;
65461;SDS011;53236;43.666;18.444;2024-03-23T03:44:26;32.47;;;22.97;;
65461;SDS011;53236;43.666;18.444;2024-03-23T03:46:52;28.50;;;20.30;;
65461;SDS011;53236;43.666;18.444;2024-03-23T03:49:18;29.23;;;21.67;;
65461;SDS011;53236;43.666;18.444;2024-03-23T03:51:44;28.10;;;21.10;;
65461;SDS011;53236;43.666;18.444;2024-03-23T03:54:09;31.50;;;23.13;;
65461;SDS011;53236;43.666;18.444;2024-03-23T03:56:35;64.67;;;36.23;;
65461;SDS011;53236;43.666;18.444;2024-03-23T03:59:01;51.00;;;31.40;;
65461;SDS011;53236;43.666;18.444;2024-03-23T04:01:27;48.27;;;31.33;;
65461;SDS011;53236;43.666;18.444;2024-03-23T04:03:52;41.23;;;26.87;;
65461;SDS011;53236;43.666;18.444;2024-03-23T04:06:18;41.60;;;25.20;;
65461;SDS011;53236;43.666;18.444;2024-03-23T04:08:44;35.53;;;24.50;;
65461;SDS011;53236;43.666;18.444;2024-03-23T04:11:10;33.83;;;24.27;;
65461;SDS011;53236;43.666;18.444;2024-03-23T04:13:36;37.37;;;25.70;;
65461;SDS011;53236;43.666;18.444;2024-03-23T04:16:02;37.13;;;26.10;;
65461;SDS011;53236;43.666;18.444;2024-03-23T04:18:28;37.17;;;24.40;;
65461;SDS011;53236;43.666;18.444;2024-03-23T04:20:54;31.57;;;23.37;;
65461;SDS011;53236;43.666;18.444;2024-03-23T04:23:20;41.50;;;26.83;;
65461;SDS011;53236;43.666;18.444;2024-03-23T04:25:46;42.53;;;26.70;;
65461;SDS011;53236;43.666;18.444;2024-03-23T04:28:12;41.27;;;26.80;;
65461;SDS011;53236;43.666;18.444;2024-03-23T04:30:37;45.03;;;28.10;;
65461;SDS011;53236;43.666;18.444;2024-03-23T04:33:03;47.00;;;32.07;;
65461;SDS011;53236;43.666;18.444;2024-03-23T04:35:30;52.40;;;33.67;;
65461;SDS011;53236;43.666;18.444;2024-03-23T04:37:56;50.60;;;33.50;;
65461;SDS011;53236;43.666;18.444;2024-03-23T04:40:23;46.07;;;30.77;;
65461;SDS011;53236;43.666;18.444;2024-03-23T04:42:49;53.23;;;34.30;;
65461;SDS011;53236;43.666;18.444;2024-03-23T04:45:15;48.70;;;32.63;;
65461;SDS011;53236;43.666;18.444;2024-03-23T04:47:41;49.57;;;33.60;;
65461;SDS011;53236;43.666;18.444;2024-03-23T04:50:07;45.00;;;31.67;;
65461;SDS011;53236;43.666;18.444;2024-03-23T04:52:33;43.97;;;30.10;;
65461;SDS011;53236;43.666;18.444;2024-03-23T04:54:59;36.37;;;27.40;;
65461;SDS011;53236;43.666;18.444;2024-03-23T04:57:24;31.33;;;22.13;;
65461;SDS011;53236;43.666;18.444;2024-03-23T04:59:50;26.30;;;19.30;;
65461;SDS011;53236;43.666;18.444;2024-03-23T05:02:16;28.37;;;18.60;;
65461;SDS011;53236;43.666;18.444;2024-03-23T05:04:41;31.47;;;21.13;;
65461;SDS011;53236;43.666;18.444;2024-03-23T05:07:07;33.73;;;24.00;;
65461;SDS011;53236;43.666;18.444;2024-03-23T05:09:33;30.93;;;22.27;;
65461;SDS011;53236;43.666;18.444;2024-03-23T05:12:02;30.97;;;21.20;;
65461;SDS011;53236;43.666;18.444;2024-03-23T05:14:28;31.27;;;21.17;;
65461;SDS011;53236;43.666;18.444;2024-03-23T05:16:54;30.50;;;22.23;;
65461;SDS011;53236;43.666;18.444;2024-03-23T05:19:19;27.93;;;20.33;;
65461;SDS011;53236;43.666;18.444;2024-03-23T05:21:45;35.30;;;20.10;;
65461;SDS011;53236;43.666;18.444;2024-03-23T05:24:11;42.03;;;30.03;;
65461;SDS011;53236;43.666;18.444;2024-03-23T05:26:37;32.13;;;21.00;;
65461;SDS011;53236;43.666;18.444;2024-03-23T05:29:03;33.40;;;24.43;;
65461;SDS011;53236;43.666;18.444;2024-03-23T05:31:31;33.00;;;25.20;;
65461;SDS011;53236;43.666;18.444;2024-03-23T05:33:57;32.83;;;22.93;;
65461;SDS011;53236;43.666;18.444;2024-03-23T05:36:23;26.37;;;18.57;;
65461;SDS011;53236;43.666;18.444;2024-03-23T05:38:51;31.20;;;20.07;;
65461;SDS011;53236;43.666;18.444;2024-03-23T05:41:17;33.53;;;22.47;;
65461;SDS011;53236;43.666;18.444;2024-03-23T05:43:42;56.70;;;37.27;;
65461;SDS011;53236;43.666;18.444;2024-03-23T05:46:08;23.70;;;16.40;;
65461;SDS011;53236;43.666;18.444;2024-03-23T05:48:35;21.43;;;14.80;;
65461;SDS011;53236;43.666;18.444;2024-03-23T05:51:01;22.70;;;14.67;;
65461;SDS011;53236;43.666;18.444;2024-03-23T05:53:26;22.73;;;14.90;;
65461;SDS011;53236;43.666;18.444;2024-03-23T05:56:01;22.17;;;13.90;;
65461;SDS011;53236;43.666;18.444;2024-03-23T05:58:32;22.43;;;14.10;;
65461;SDS011;53236;43.666;18.444;2024-03-23T06:00:58;19.77;;;12.90;;
65461;SDS011;53236;43.666;18.444;2024-03-23T06:03:27;19.40;;;13.43;;
65461;SDS011;53236;43.666;18.444;2024-03-23T06:05:54;20.80;;;13.93;;
65461;SDS011;53236;43.666;18.444;2024-03-23T06:08:20;25.00;;;15.00;;
65461;SDS011;53236;43.666;18.444;2024-03-23T06:10:46;26.30;;;17.35;;
65461;SDS011;53236;43.666;18.444;2024-03-23T06:13:12;24.00;;;13.50;;
65461;SDS011;53236;43.666;18.444;2024-03-23T06:15:38;32.13;;;18.35;;
65461;SDS011;53236;43.666;18.444;2024-03-23T06:18:04;32.00;;;21.05;;
65461;SDS011;53236;43.666;18.444;2024-03-23T06:20:30;19.95;;;13.95;;
65461;SDS011;53236;43.666;18.444;2024-03-23T06:22:56;17.33;;;11.33;;
65461;SDS011;53236;43.666;18.444;2024-03-23T06:25:22;12.77;;;9.77;;
65461;SDS011;53236;43.666;18.444;2024-03-23T06:27:48;16.80;;;11.87;;
65461;SDS011;53236;43.666;18.444;2024-03-23T06:30:14;14.00;;;9.70;;
65461;SDS011;53236;43.666;18.444;2024-03-23T06:32:40;15.53;;;9.77;;
65461;SDS011;53236;43.666;18.444;2024-03-23T06:35:05;14.00;;;10.33;;
65461;SDS011;53236;43.666;18.444;2024-03-23T06:37:34;11.77;;;9.00;;
65461;SDS011;53236;43.666;18.444;2024-03-23T06:40:00;13.57;;;9.30;;
65461;SDS011;53236;43.666;18.444;2024-03-23T06:42:26;12.07;;;9.70;;
65461;SDS011;53236;43.666;18.444;2024-03-23T06:44:52;14.57;;;9.00;;
65461;SDS011;53236;43.666;18.444;2024-03-23T06:47:18;13.13;;;9.67;;
65461;SDS011;53236;43.666;18.444;2024-03-23T06:49:43;14.80;;;10.30;;
65461;SDS011;53236;43.666;18.444;2024-03-23T06:52:09;12.83;;;10.37;;
65461;SDS011;53236;43.666;18.444;2024-03-23T06:54:35;24.60;;;13.87;;
65461;SDS011;53236;43.666;18.444;2024-03-23T06:57:00;16.83;;;12.13;;
65461;SDS011;53236;43.666;18.444;2024-03-23T06:59:26;22.93;;;16.50;;
65461;SDS011;53236;43.666;18.444;2024-03-23T07:01:52;26.00;;;15.70;;
65461;SDS011;53236;43.666;18.444;2024-03-23T07:04:18;25.07;;;17.33;;
65461;SDS011;53236;43.666;18.444;2024-03-23T07:06:44;37.03;;;22.97;;
65461;SDS011;53236;43.666;18.444;2024-03-23T07:09:10;28.57;;;18.50;;
65461;SDS011;53236;43.666;18.444;2024-03-23T07:11:36;24.50;;;16.63;;
65461;SDS011;53236;43.666;18.444;2024-03-23T07:14:03;22.80;;;16.10;;
65461;SDS011;53236;43.666;18.444;2024-03-23T07:16:29;21.17;;;15.07;;
65461;SDS011;53236;43.666;18.444;2024-03-23T07:18:55;19.10;;;13.50;;
65461;SDS011;53236;43.666;18.444;2024-03-23T07:21:21;19.23;;;12.53;;
65461;SDS011;53236;43.666;18.444;2024-03-23T07:23:47;22.27;;;11.63;;
65461;SDS011;53236;43.666;18.444;2024-03-23T07:26:13;15.40;;;11.30;;
65461;SDS011;53236;43.666;18.444;2024-03-23T07:28:39;15.00;;;9.47;;
65461;SDS011;53236;43.666;18.444;2024-03-23T07:31:11;12.67;;;9.47;;
65461;SDS011;53236;43.666;18.444;2024-03-23T07:33:41;25.70;;;15.53;;
65461;SDS011;53236;43.666;18.444;2024-03-23T07:36:08;21.13;;;12.17;;
65461;SDS011;53236;43.666;18.444;2024-03-23T07:38:33;15.90;;;10.30;;
65461;SDS011;53236;43.666;18.444;2024-03-23T07:41:05;12.93;;;7.70;;
65461;SDS011;53236;43.666;18.444;2024-03-23T07:43:31;13.60;;;9.93;;
65461;SDS011;53236;43.666;18.444;2024-03-23T07:45:57;12.45;;;7.38;;
65461;SDS011;53236;43.666;18.444;2024-03-23T07:48:24;7.90;;;6.18;;
65461;SDS011;53236;43.666;18.444;2024-03-23T07:51:32;18.98;;;11.25;;
65461;SDS011;53236;43.666;18.444;2024-03-23T07:53:43;9.90;;;5.70;;
65461;SDS011;53236;43.666;18.444;2024-03-23T07:56:13;10.30;;;6.15;;
65461;SDS011;53236;43.666;18.444;2024-03-23T07:58:40;12.25;;;8.52;;
65461;SDS011;53236;43.666;18.444;2024-03-23T08:01:09;12.13;;;8.25;;
65461;SDS011;53236;43.666;18.444;2024-03-23T08:03:40;9.77;;;6.07;;
65461;SDS011;53236;43.666;18.444;2024-03-23T08:06:13;8.30;;;6.90;;
65461;SDS011;53236;43.666;18.444;2024-03-23T08:08:45;10.88;;;7.95;;
65461;SDS011;53236;43.666;18.444;2024-03-23T08:11:16;9.93;;;6.82;;
65461;SDS011;53236;43.666;18.444;2024-03-23T08:13:44;7.97;;;6.07;;
65461;SDS011;53236;43.666;18.444;2024-03-23T08:16:10;9.70;;;6.20;;
65461;SDS011;53236;43.666;18.444;2024-03-23T08:18:38;9.55;;;6.97;;
65461;SDS011;53236;43.666;18.444;2024-03-23T08:21:05;10.15;;;6.50;;
65461;SDS011;53236;43.666;18.444;2024-03-23T08:23:32;8.38;;;4.82;;
65461;SDS011;53236;43.666;18.444;2024-03-23T08:26:01;7.55;;;5.30;;
65461;SDS011;53236;43.666;18.444;2024-03-23T08:28:28;5.28;;;4.05;;
65461;SDS011;53236;43.666;18.444;2024-03-23T08:30:55;5.07;;;3.35;;
65461;SDS011;53236;43.666;18.444;2024-03-23T08:33:22;9.43;;;3.15;;
65461;SDS011;53236;43.666;18.444;2024-03-23T08:35:54;6.72;;;3.75;;
65461;SDS011;53236;43.666;18.444;2024-03-23T08:38:21;4.45;;;3.08;;
65461;SDS011;53236;43.666;18.444;2024-03-23T08:40:47;4.85;;;2.83;;
65461;SDS011;53236;43.666;18.444;2024-03-23T08:43:13;7.75;;;3.70;;
65461;SDS011;53236;43.666;18.444;2024-03-23T08:45:39;5.65;;;2.75;;
65461;SDS011;53236;43.666;18.444;2024-03-23T08:48:04;4.18;;;2.88;;
65461;SDS011;53236;43.666;18.444;2024-03-23T08:50:30;6.35;;;4.03;;
65461;SDS011;53236;43.666;18.444;2024-03-23T08:52:56;5.97;;;3.83;;
65461;SDS011;53236;43.666;18.444;2024-03-23T08:55:22;3.70;;;3.00;;
65461;SDS011;53236;43.666;18.444;2024-03-23T08:57:48;4.28;;;2.70;;
65461;SDS011;53236;43.666;18.444;2024-03-23T09:00:14;4.00;;;2.88;;
65461;SDS011;53236;43.666;18.444;2024-03-23T09:02:40;4.32;;;2.95;;
65461;SDS011;53236;43.666;18.444;2024-03-23T09:05:05;7.25;;;4.43;;
65461;SDS011;53236;43.666;18.444;2024-03-23T09:07:31;6.82;;;4.32;;
65461;SDS011;53236;43.666;18.444;2024-03-23T09:09:57;5.50;;;3.25;;
65461;SDS011;53236;43.666;18.444;2024-03-23T09:12:23;5.05;;;2.80;;
65461;SDS011;53236;43.666;18.444;2024-03-23T09:14:50;4.07;;;2.72;;
65461;SDS011;53236;43.666;18.444;2024-03-23T09:17:15;4.00;;;2.70;;
65461;SDS011;53236;43.666;18.444;2024-03-23T09:19:43;5.05;;;2.50;;
65461;SDS011;53236;43.666;18.444;2024-03-23T09:22:09;4.70;;;2.90;;
65461;SDS011;53236;43.666;18.444;2024-03-23T09:24:34;6.32;;;3.97;;
65461;SDS011;53236;43.666;18.444;2024-03-23T09:27:00;4.70;;;3.05;;
65461;SDS011;53236;43.666;18.444;2024-03-23T09:29:26;5.10;;;2.92;;
65461;SDS011;53236;43.666;18.444;2024-03-23T09:31:52;4.82;;;3.30;;
65461;SDS011;53236;43.666;18.444;2024-03-23T09:34:18;5.00;;;3.17;;
65461;SDS011;53236;43.666;18.444;2024-03-23T09:36:44;4.38;;;2.88;;
65461;SDS011;53236;43.666;18.444;2024-03-23T09:39:10;4.07;;;2.45;;
65461;SDS011;53236;43.666;18.444;2024-03-23T09:41:36;5.07;;;3.72;;
65461;SDS011;53236;43.666;18.444;2024-03-23T09:44:02;5.60;;;2.80;;
65461;SDS011;53236;43.666;18.444;2024-03-23T09:46:28;4.78;;;2.78;;
65461;SDS011;53236;43.666;18.444;2024-03-23T09:48:55;4.45;;;2.85;;
65461;SDS011;53236;43.666;18.444;2024-03-23T09:51:21;4.40;;;2.35;;
65461;SDS011;53236;43.666;18.444;2024-03-23T09:53:49;4.18;;;2.67;;
65461;SDS011;53236;43.666;18.444;2024-03-23T09:56:17;5.43;;;3.70;;
65461;SDS011;53236;43.666;18.444;2024-03-23T09:58:43;5.28;;;3.45;;
65461;SDS011;53236;43.666;18.444;2024-03-23T10:01:09;5.53;;;2.80;;
65461;SDS011;53236;43.666;18.444;2024-03-23T10:03:44;4.15;;;2.38;;
65461;SDS011;53236;43.666;18.444;2024-03-23T10:06:11;5.32;;;3.20;;
65461;SDS011;53236;43.666;18.444;2024-03-23T10:08:37;4.22;;;2.65;;
65461;SDS011;53236;43.666;18.444;2024-03-23T10:11:15;6.32;;;2.90;;
65461;SDS011;53236;43.666;18.444;2024-03-23T10:13:42;6.80;;;3.13;;
65461;SDS011;53236;43.666;18.444;2024-03-23T10:16:09;5.13;;;3.03;;
65461;SDS011;53236;43.666;18.444;2024-03-23T10:18:38;4.32;;;2.80;;
65461;SDS011;53236;43.666;18.444;2024-03-23T10:21:11;6.10;;;2.53;;
65461;SDS011;53236;43.666;18.444;2024-03-23T10:23:46;3.92;;;2.40;;
65461;SDS011;53236;43.666;18.444;2024-03-23T10:26:21;6.68;;;2.40;;
65461;SDS011;53236;43.666;18.444;2024-03-23T10:28:53;4.25;;;2.65;;
65461;SDS011;53236;43.666;18.444;2024-03-23T10:31:27;4.45;;;2.83;;
65461;SDS011;53236;43.666;18.444;2024-03-23T10:33:53;4.00;;;2.78;;
65461;SDS011;53236;43.666;18.444;2024-03-23T10:36:20;5.10;;;3.05;;
65461;SDS011;53236;43.666;18.444;2024-03-23T10:38:51;4.63;;;3.30;;
65461;SDS011;53236;43.666;18.444;2024-03-23T10:41:18;4.80;;;3.17;;
65461;SDS011;53236;43.666;18.444;2024-03-23T10:43:47;14.95;;;9.30;;
65461;SDS011;53236;43.666;18.444;2024-03-23T10:46:13;4.78;;;3.05;;
65461;SDS011;53236;43.666;18.444;2024-03-23T10:48:40;5.90;;;3.47;;
65461;SDS011;53236;43.666;18.444;2024-03-23T10:51:07;5.25;;;2.78;;
65461;SDS011;53236;43.666;18.444;2024-03-23T10:53:34;4.25;;;2.67;;
65461;SDS011;53236;43.666;18.444;2024-03-23T10:56:00;6.50;;;3.25;;
65461;SDS011;53236;43.666;18.444;2024-03-23T11:01:11;6.38;;;3.10;;
65461;SDS011;53236;43.666;18.444;2024-03-23T11:03:38;6.22;;;3.13;;
65461;SDS011;53236;43.666;18.444;2024-03-23T11:06:09;4.30;;;3.00;;
65461;SDS011;53236;43.666;18.444;2024-03-23T11:08:39;6.45;;;3.78;;
65461;SDS011;53236;43.666;18.444;2024-03-23T11:13:47;9.95;;;3.40;;
65461;SDS011;53236;43.666;18.444;2024-03-23T11:16:15;4.30;;;3.08;;
65461;SDS011;53236;43.666;18.444;2024-03-23T11:18:58;10.40;;;3.97;;
65461;SDS011;53236;43.666;18.444;2024-03-23T11:22:02;7.13;;;4.55;;
65461;SDS011;53236;43.666;18.444;2024-03-23T11:24:30;9.70;;;5.80;;
65461;SDS011;53236;43.666;18.444;2024-03-23T11:26:56;7.28;;;3.38;;
65461;SDS011;53236;43.666;18.444;2024-03-23T11:29:25;6.93;;;3.90;;
65461;SDS011;53236;43.666;18.444;2024-03-23T11:31:52;7.43;;;3.90;;
65461;SDS011;53236;43.666;18.444;2024-03-23T11:34:18;8.65;;;3.33;;
65461;SDS011;53236;43.666;18.444;2024-03-23T11:36:45;8.15;;;3.20;;
65461;SDS011;53236;43.666;18.444;2024-03-23T11:41:45;4.70;;;3.05;;
65461;SDS011;53236;43.666;18.444;2024-03-23T11:44:17;6.93;;;3.70;;
65461;SDS011;53236;43.666;18.444;2024-03-23T11:46:43;10.48;;;3.17;;
65461;SDS011;53236;43.666;18.444;2024-03-23T11:49:19;5.30;;;2.80;;
65461;SDS011;53236;43.666;18.444;2024-03-23T11:51:49;6.20;;;3.63;;
65461;SDS011;53236;43.666;18.444;2024-03-23T11:54:16;5.60;;;3.33;;
65461;SDS011;53236;43.666;18.444;2024-03-23T11:56:55;6.70;;;3.33;;
65461;SDS011;53236;43.666;18.444;2024-03-23T11:59:32;6.05;;;3.17;;
65461;SDS011;53236;43.666;18.444;2024-03-23T12:01:59;6.53;;;3.22;;
65461;SDS011;53236;43.666;18.444;2024-03-23T12:04:28;13.65;;;3.25;;
65461;SDS011;53236;43.666;18.444;2024-03-23T12:07:13;3.97;;;3.00;;
65461;SDS011;53236;43.666;18.444;2024-03-23T12:09:47;4.93;;;2.87;;
65461;SDS011;53236;43.666;18.444;2024-03-23T12:12:34;4.83;;;2.90;;
65461;SDS011;53236;43.666;18.444;2024-03-23T12:15:03;4.47;;;2.70;;
65461;SDS011;53236;43.666;18.444;2024-03-23T12:17:33;4.83;;;3.03;;
65461;SDS011;53236;43.666;18.444;2024-03-23T12:20:02;4.30;;;2.40;;
65461;SDS011;53236;43.666;18.444;2024-03-23T12:22:28;7.97;;;3.05;;
65461;SDS011;53236;43.666;18.444;2024-03-23T12:24:55;4.20;;;2.63;;
65461;SDS011;53236;43.666;18.444;2024-03-23T12:27:21;5.97;;;2.70;;
65461;SDS011;53236;43.666;18.444;2024-03-23T12:29:47;5.37;;;3.17;;
65461;SDS011;53236;43.666;18.444;2024-03-23T12:32:14;4.10;;;2.67;;
65461;SDS011;53236;43.666;18.444;2024-03-23T12:34:41;9.40;;;3.17;;
65461;SDS011;53236;43.666;18.444;2024-03-23T12:37:07;5.07;;;2.90;;
65461;SDS011;53236;43.666;18.444;2024-03-23T12:39:34;5.45;;;2.95;;
65461;SDS011;53236;43.666;18.444;2024-03-23T12:42:00;7.10;;;2.72;;
65461;SDS011;53236;43.666;18.444;2024-03-23T12:44:30;7.30;;;3.00;;
65461;SDS011;53236;43.666;18.444;2024-03-23T12:46:56;5.15;;;3.13;;
65461;SDS011;53236;43.666;18.444;2024-03-23T12:49:22;8.37;;;4.07;;
65461;SDS011;53236;43.666;18.444;2024-03-23T12:51:52;7.43;;;4.20;;
65461;SDS011;53236;43.666;18.444;2024-03-23T12:54:20;7.23;;;4.43;;
65461;SDS011;53236;43.666;18.444;2024-03-23T12:56:46;4.43;;;2.90;;
65461;SDS011;53236;43.666;18.444;2024-03-23T12:59:12;4.87;;;3.40;;
65461;SDS011;53236;43.666;18.444;2024-03-23T13:01:39;9.17;;;4.87;;
65461;SDS011;53236;43.666;18.444;2024-03-23T13:04:05;6.83;;;3.93;;
65461;SDS011;53236;43.666;18.444;2024-03-23T13:06:30;7.23;;;5.07;;
65461;SDS011;53236;43.666;18.444;2024-03-23T13:09:00;18.63;;;9.07;;
65461;SDS011;53236;43.666;18.444;2024-03-23T13:11:27;6.77;;;4.63;;
65461;SDS011;53236;43.666;18.444;2024-03-23T13:13:53;6.27;;;4.27;;
65461;SDS011;53236;43.666;18.444;2024-03-23T13:16:19;12.83;;;6.00;;
65461;SDS011;53236;43.666;18.444;2024-03-23T13:18:45;5.82;;;3.88;;
65461;SDS011;53236;43.666;18.444;2024-03-23T13:21:11;5.57;;;3.67;;
65461;SDS011;53236;43.666;18.444;2024-03-23T13:23:36;10.00;;;4.77;;
65461;SDS011;53236;43.666;18.444;2024-03-23T13:26:03;7.82;;;4.38;;
65461;SDS011;53236;43.666;18.444;2024-03-23T13:28:29;9.60;;;5.77;;
65461;SDS011;53236;43.666;18.444;2024-03-23T13:30:56;8.17;;;4.40;;
65461;SDS011;53236;43.666;18.444;2024-03-23T13:33:28;10.20;;;5.20;;
65461;SDS011;53236;43.666;18.444;2024-03-23T13:35:57;6.27;;;3.80;;
65461;SDS011;53236;43.666;18.444;2024-03-23T13:38:23;6.60;;;4.50;;
65461;SDS011;53236;43.666;18.444;2024-03-23T13:40:56;6.73;;;4.30;;
65461;SDS011;53236;43.666;18.444;2024-03-23T13:43:23;10.97;;;5.83;;
65461;SDS011;53236;43.666;18.444;2024-03-23T13:45:54;9.73;;;5.80;;
65461;SDS011;53236;43.666;18.444;2024-03-23T13:48:27;7.60;;;4.17;;
65461;SDS011;53236;43.666;18.444;2024-03-23T13:51:00;5.53;;;3.77;;
65461;SDS011;53236;43.666;18.444;2024-03-23T13:53:27;8.53;;;4.80;;
65461;SDS011;53236;43.666;18.444;2024-03-23T13:55:53;17.53;;;9.07;;
65461;SDS011;53236;43.666;18.444;2024-03-23T13:58:19;13.07;;;8.17;;
65461;SDS011;53236;43.666;18.444;2024-03-23T14:00:45;9.27;;;6.23;;
65461;SDS011;53236;43.666;18.444;2024-03-23T14:03:11;26.13;;;16.20;;
65461;SDS011;53236;43.666;18.444;2024-03-23T14:05:38;9.53;;;6.70;;
65461;SDS011;53236;43.666;18.444;2024-03-23T14:08:08;11.67;;;7.27;;
65461;SDS011;53236;43.666;18.444;2024-03-23T14:10:34;22.83;;;13.13;;
65461;SDS011;53236;43.666;18.444;2024-03-23T14:13:01;20.23;;;11.97;;
65461;SDS011;53236;43.666;18.444;2024-03-23T14:15:30;25.60;;;13.90;;
65461;SDS011;53236;43.666;18.444;2024-03-23T14:17:56;13.60;;;7.83;;
65461;SDS011;53236;43.666;18.444;2024-03-23T14:20:22;13.40;;;8.57;;
65461;SDS011;53236;43.666;18.444;2024-03-23T14:22:49;12.90;;;8.03;;
65461;SDS011;53236;43.666;18.444;2024-03-23T14:25:15;11.47;;;7.60;;
65461;SDS011;53236;43.666;18.444;2024-03-23T14:27:41;11.17;;;6.23;;
65461;SDS011;53236;43.666;18.444;2024-03-23T14:30:09;12.87;;;7.53;;
65461;SDS011;53236;43.666;18.444;2024-03-23T14:32:35;17.60;;;9.40;;
65461;SDS011;53236;43.666;18.444;2024-03-23T14:35:05;8.27;;;5.07;;
65461;SDS011;53236;43.666;18.444;2024-03-23T14:37:38;11.87;;;7.47;;
65461;SDS011;53236;43.666;18.444;2024-03-23T14:40:05;11.90;;;5.40;;
65461;SDS011;53236;43.666;18.444;2024-03-23T14:42:31;8.70;;;4.70;;
65461;SDS011;53236;43.666;18.444;2024-03-23T14:44:57;7.37;;;3.93;;
65461;SDS011;53236;43.666;18.444;2024-03-23T14:47:23;5.70;;;3.97;;
65461;SDS011;53236;43.666;18.444;2024-03-23T14:49:49;6.83;;;3.40;;
65461;SDS011;53236;43.666;18.444;2024-03-23T14:52:19;4.70;;;3.13;;
65461;SDS011;53236;43.666;18.444;2024-03-23T14:54:45;5.93;;;3.60;;
65461;SDS011;53236;43.666;18.444;2024-03-23T14:57:11;5.83;;;3.73;;
65461;SDS011;53236;43.666;18.444;2024-03-23T14:59:37;6.03;;;3.47;;
65461;SDS011;53236;43.666;18.444;2024-03-23T15:02:03;7.30;;;4.17;;
65461;SDS011;53236;43.666;18.444;2024-03-23T15:04:30;8.60;;;4.50;;
65461;SDS011;53236;43.666;18.444;2024-03-23T15:06:55;5.27;;;3.63;;
65461;SDS011;53236;43.666;18.444;2024-03-23T15:09:21;7.03;;;4.63;;
65461;SDS011;53236;43.666;18.444;2024-03-23T15:11:47;6.93;;;3.97;;
65461;SDS011;53236;43.666;18.444;2024-03-23T15:14:13;8.93;;;4.60;;
65461;SDS011;53236;43.666;18.444;2024-03-23T15:16:38;6.73;;;4.63;;
65461;SDS011;53236;43.666;18.444;2024-03-23T15:19:04;8.97;;;4.03;;
65461;SDS011;53236;43.666;18.444;2024-03-23T15:21:33;8.17;;;4.90;;